sensor_id;sensor_type;location;lat;lon;timestamp;temperature;humidity
4651;DHT22;2338;49.602;8.722;2023-07-16T00:01:27;20.80;99.90
4651;DHT22;2338;49.602;8.722;2023-07-16T00:04:12;20.90;99.90
4651;DHT22;2338;49.602;8.722;2023-07-16T00:07:00;20.80;99.90
4651;DHT22;2338;49.602;8.722;2023-07-16T00:09:45;20.70;99.90
4651;DHT22;2338;49.602;8.722;2023-07-16T00:12:30;20.70;99.90
4651;DHT22;2338;49.602;8.722;2023-07-16T00:15:16;20.70;99.90
4651;DHT22;2338;49.602;8.722;2023-07-16T00:18:01;20.50;99.90
4651;DHT22;2338;49.602;8.722;2023-07-16T00:20:47;20.50;99.90
4651;DHT22;2338;49.602;8.722;2023-07-16T00:23:34;20.40;99.90
4651;DHT22;2338;49.602;8.722;2023-07-16T00:26:19;20.20;99.90
4651;DHT22;2338;49.602;8.722;2023-07-16T00:29:05;20.30;99.90
4651;DHT22;2338;49.602;8.722;2023-07-16T00:31:50;20.30;99.90
4651;DHT22;2338;49.602;8.722;2023-07-16T00:34:36;20.20;99.90
4651;DHT22;2338;49.602;8.722;2023-07-16T00:37:22;20.20;99.90
4651;DHT22;2338;49.602;8.722;2023-07-16T00:40:09;20.20;99.90
4651;DHT22;2338;49.602;8.722;2023-07-16T00:42:54;20.20;99.90
4651;DHT22;2338;49.602;8.722;2023-07-16T00:45:41;20.30;99.90
4651;DHT22;2338;49.602;8.722;2023-07-16T00:48:28;20.30;99.90
4651;DHT22;2338;49.602;8.722;2023-07-16T00:51:14;20.20;99.90
4651;DHT22;2338;49.602;8.722;2023-07-16T00:54:00;20.30;99.90
4651;DHT22;2338;49.602;8.722;2023-07-16T00:56:47;20.20;99.90
4651;DHT22;2338;49.602;8.722;2023-07-16T00:59:33;20.30;99.90
4651;DHT22;2338;49.602;8.722;2023-07-16T01:02:19;20.40;99.90
4651;DHT22;2338;49.602;8.722;2023-07-16T01:05:05;20.30;99.90
4651;DHT22;2338;49.602;8.722;2023-07-16T01:07:59;20.30;99.90
4651;DHT22;2338;49.602;8.722;2023-07-16T01:10:45;20.30;99.90
4651;DHT22;2338;49.602;8.722;2023-07-16T01:13:32;20.30;99.90
4651;DHT22;2338;49.602;8.722;2023-07-16T01:16:20;20.30;99.90
4651;DHT22;2338;49.602;8.722;2023-07-16T01:19:05;20.30;99.90
4651;DHT22;2338;49.602;8.722;2023-07-16T01:22:01;20.40;99.90
4651;DHT22;2338;49.602;8.722;2023-07-16T01:25:15;20.20;99.90
4651;DHT22;2338;49.602;8.722;2023-07-16T01:28:17;20.20;99.90
4651;DHT22;2338;49.602;8.722;2023-07-16T01:31:09;20.20;99.90
4651;DHT22;2338;49.602;8.722;2023-07-16T01:33:56;20.20;99.90
4651;DHT22;2338;49.602;8.722;2023-07-16T01:36:43;20.00;99.90
4651;DHT22;2338;49.602;8.722;2023-07-16T01:39:31;20.00;99.90
4651;DHT22;2338;49.602;8.722;2023-07-16T01:42:16;20.10;99.90
4651;DHT22;2338;49.602;8.722;2023-07-16T01:45:03;20.10;99.90
4651;DHT22;2338;49.602;8.722;2023-07-16T01:47:59;20.00;99.90
4651;DHT22;2338;49.602;8.722;2023-07-16T01:50:45;20.00;99.90
4651;DHT22;2338;49.602;8.722;2023-07-16T01:53:31;20.00;99.90
4651;DHT22;2338;49.602;8.722;2023-07-16T01:56:16;20.00;99.90
4651;DHT22;2338;49.602;8.722;2023-07-16T01:59:02;19.80;99.90
4651;DHT22;2338;49.602;8.722;2023-07-16T02:01:47;19.80;99.90
4651;DHT22;2338;49.602;8.722;2023-07-16T02:04:34;19.80;99.90
4651;DHT22;2338;49.602;8.722;2023-07-16T02:07:20;19.80;99.90
4651;DHT22;2338;49.602;8.722;2023-07-16T02:10:06;19.70;99.90
4651;DHT22;2338;49.602;8.722;2023-07-16T02:12:51;19.70;99.90
4651;DHT22;2338;49.602;8.722;2023-07-16T02:15:37;19.70;99.90
4651;DHT22;2338;49.602;8.722;2023-07-16T02:18:23;19.70;99.90
4651;DHT22;2338;49.602;8.722;2023-07-16T02:21:10;19.60;99.90
4651;DHT22;2338;49.602;8.722;2023-07-16T02:23:55;19.70;99.90
4651;DHT22;2338;49.602;8.722;2023-07-16T02:26:41;19.60;99.90
4651;DHT22;2338;49.602;8.722;2023-07-16T02:29:26;19.60;99.90
4651;DHT22;2338;49.602;8.722;2023-07-16T02:32:12;19.40;99.90
4651;DHT22;2338;49.602;8.722;2023-07-16T02:34:57;19.40;99.90
4651;DHT22;2338;49.602;8.722;2023-07-16T02:37:44;19.40;99.90
4651;DHT22;2338;49.602;8.722;2023-07-16T02:40:30;19.40;99.90
4651;DHT22;2338;49.602;8.722;2023-07-16T02:43:15;19.40;99.90
4651;DHT22;2338;49.602;8.722;2023-07-16T02:46:01;19.40;99.90
4651;DHT22;2338;49.602;8.722;2023-07-16T02:48:46;19.40;99.90
4651;DHT22;2338;49.602;8.722;2023-07-16T02:51:32;19.40;99.90
4651;DHT22;2338;49.602;8.722;2023-07-16T02:54:19;19.30;99.90
4651;DHT22;2338;49.602;8.722;2023-07-16T02:57:06;19.30;99.90
4651;DHT22;2338;49.602;8.722;2023-07-16T02:59:51;19.30;99.90
4651;DHT22;2338;49.602;8.722;2023-07-16T03:02:37;19.20;99.90
4651;DHT22;2338;49.602;8.722;2023-07-16T03:05:22;19.10;99.90
4651;DHT22;2338;49.602;8.722;2023-07-16T03:08:07;19.10;99.90
4651;DHT22;2338;49.602;8.722;2023-07-16T03:10:54;19.10;99.90
4651;DHT22;2338;49.602;8.722;2023-07-16T03:13:40;19.10;99.90
4651;DHT22;2338;49.602;8.722;2023-07-16T03:16:25;19.00;99.90
4651;DHT22;2338;49.602;8.722;2023-07-16T03:19:11;18.90;99.90
4651;DHT22;2338;49.602;8.722;2023-07-16T03:21:56;18.90;99.90
4651;DHT22;2338;49.602;8.722;2023-07-16T03:24:42;18.90;99.90
4651;DHT22;2338;49.602;8.722;2023-07-16T03:27:29;19.00;99.90
4651;DHT22;2338;49.602;8.722;2023-07-16T03:30:14;19.00;99.90
4651;DHT22;2338;49.602;8.722;2023-07-16T03:33:00;19.00;99.90
4651;DHT22;2338;49.602;8.722;2023-07-16T03:35:47;19.00;99.90
4651;DHT22;2338;49.602;8.722;2023-07-16T03:38:32;18.90;99.90
4651;DHT22;2338;49.602;8.722;2023-07-16T03:41:18;18.80;99.90
4651;DHT22;2338;49.602;8.722;2023-07-16T03:44:05;18.80;99.90
4651;DHT22;2338;49.602;8.722;2023-07-16T03:46:51;18.80;99.90
4651;DHT22;2338;49.602;8.722;2023-07-16T03:49:36;18.80;99.90
4651;DHT22;2338;49.602;8.722;2023-07-16T03:52:22;18.80;99.90
4651;DHT22;2338;49.602;8.722;2023-07-16T03:55:09;18.80;99.90
4651;DHT22;2338;49.602;8.722;2023-07-16T03:57:55;18.80;99.90
4651;DHT22;2338;49.602;8.722;2023-07-16T04:00:42;18.90;99.90
4651;DHT22;2338;49.602;8.722;2023-07-16T04:03:28;19.00;99.90
4651;DHT22;2338;49.602;8.722;2023-07-16T04:06:14;19.00;99.90
4651;DHT22;2338;49.602;8.722;2023-07-16T04:08:59;18.90;99.90
4651;DHT22;2338;49.602;8.722;2023-07-16T04:11:45;18.70;99.90
4651;DHT22;2338;49.602;8.722;2023-07-16T04:14:30;18.70;99.90
4651;DHT22;2338;49.602;8.722;2023-07-16T04:17:17;18.60;99.90
4651;DHT22;2338;49.602;8.722;2023-07-16T04:20:03;18.60;99.90
4651;DHT22;2338;49.602;8.722;2023-07-16T04:22:50;18.70;99.90
4651;DHT22;2338;49.602;8.722;2023-07-16T04:25:36;18.50;99.90
4651;DHT22;2338;49.602;8.722;2023-07-16T04:28:21;18.40;99.90
4651;DHT22;2338;49.602;8.722;2023-07-16T04:31:07;18.50;99.90
4651;DHT22;2338;49.602;8.722;2023-07-16T04:33:54;18.40;99.90
4651;DHT22;2338;49.602;8.722;2023-07-16T04:36:41;18.40;99.90
4651;DHT22;2338;49.602;8.722;2023-07-16T04:39:26;18.40;99.90
4651;DHT22;2338;49.602;8.722;2023-07-16T04:42:12;18.40;99.90
4651;DHT22;2338;49.602;8.722;2023-07-16T04:44:58;18.50;99.90
4651;DHT22;2338;49.602;8.722;2023-07-16T04:47:43;18.50;99.90
4651;DHT22;2338;49.602;8.722;2023-07-16T04:50:30;18.60;99.90
4651;DHT22;2338;49.602;8.722;2023-07-16T04:53:15;18.60;99.90
4651;DHT22;2338;49.602;8.722;2023-07-16T04:56:02;18.60;99.90
4651;DHT22;2338;49.602;8.722;2023-07-16T04:58:49;18.60;99.90
4651;DHT22;2338;49.602;8.722;2023-07-16T05:01:34;18.70;99.90
4651;DHT22;2338;49.602;8.722;2023-07-16T05:04:20;18.70;99.90
4651;DHT22;2338;49.602;8.722;2023-07-16T05:07:07;18.80;99.90
4651;DHT22;2338;49.602;8.722;2023-07-16T05:09:52;18.70;99.90
4651;DHT22;2338;49.602;8.722;2023-07-16T05:12:38;18.70;99.90
4651;DHT22;2338;49.602;8.722;2023-07-16T05:15:23;18.70;99.90
4651;DHT22;2338;49.602;8.722;2023-07-16T05:18:09;18.80;99.90
4651;DHT22;2338;49.602;8.722;2023-07-16T05:20:54;18.70;99.90
4651;DHT22;2338;49.602;8.722;2023-07-16T05:23:41;18.80;99.90
4651;DHT22;2338;49.602;8.722;2023-07-16T05:26:27;18.90;99.90
4651;DHT22;2338;49.602;8.722;2023-07-16T05:29:12;18.90;99.90
4651;DHT22;2338;49.602;8.722;2023-07-16T05:31:58;18.90;99.90
4651;DHT22;2338;49.602;8.722;2023-07-16T05:34:43;18.90;99.90
4651;DHT22;2338;49.602;8.722;2023-07-16T05:37:29;19.00;99.90
4651;DHT22;2338;49.602;8.722;2023-07-16T05:40:16;18.80;99.90
4651;DHT22;2338;49.602;8.722;2023-07-16T05:43:01;18.70;99.90
4651;DHT22;2338;49.602;8.722;2023-07-16T05:45:48;18.60;99.90
4651;DHT22;2338;49.602;8.722;2023-07-16T05:48:33;18.70;99.90
4651;DHT22;2338;49.602;8.722;2023-07-16T05:51:19;18.90;99.90
4651;DHT22;2338;49.602;8.722;2023-07-16T05:54:04;19.10;99.90
4651;DHT22;2338;49.602;8.722;2023-07-16T05:56:52;19.10;99.90
4651;DHT22;2338;49.602;8.722;2023-07-16T05:59:37;19.20;99.90
4651;DHT22;2338;49.602;8.722;2023-07-16T06:02:23;19.10;99.90
4651;DHT22;2338;49.602;8.722;2023-07-16T06:05:09;19.10;99.90
4651;DHT22;2338;49.602;8.722;2023-07-16T06:07:55;19.10;99.90
4651;DHT22;2338;49.602;8.722;2023-07-16T06:10:40;19.20;99.90
4651;DHT22;2338;49.602;8.722;2023-07-16T06:13:27;19.30;99.90
4651;DHT22;2338;49.602;8.722;2023-07-16T06:16:12;19.20;99.90
4651;DHT22;2338;49.602;8.722;2023-07-16T06:18:58;19.10;99.90
4651;DHT22;2338;49.602;8.722;2023-07-16T06:21:43;19.00;99.90
4651;DHT22;2338;49.602;8.722;2023-07-16T06:24:29;19.00;99.90
4651;DHT22;2338;49.602;8.722;2023-07-16T06:27:14;19.00;99.90
4651;DHT22;2338;49.602;8.722;2023-07-16T06:30:01;19.00;99.90
4651;DHT22;2338;49.602;8.722;2023-07-16T06:32:47;19.30;99.90
4651;DHT22;2338;49.602;8.722;2023-07-16T06:35:33;19.40;99.90
4651;DHT22;2338;49.602;8.722;2023-07-16T06:38:19;19.50;99.90
4651;DHT22;2338;49.602;8.722;2023-07-16T06:41:04;19.70;99.90
4651;DHT22;2338;49.602;8.722;2023-07-16T06:43:49;19.70;99.90
4651;DHT22;2338;49.602;8.722;2023-07-16T06:46:36;19.70;99.90
4651;DHT22;2338;49.602;8.722;2023-07-16T06:49:22;19.70;99.90
4651;DHT22;2338;49.602;8.722;2023-07-16T06:52:08;19.70;99.90
4651;DHT22;2338;49.602;8.722;2023-07-16T06:54:53;19.70;99.90
4651;DHT22;2338;49.602;8.722;2023-07-16T06:57:39;19.60;99.90
4651;DHT22;2338;49.602;8.722;2023-07-16T07:00:24;19.50;99.90
4651;DHT22;2338;49.602;8.722;2023-07-16T07:03:11;19.50;99.90
4651;DHT22;2338;49.602;8.722;2023-07-16T07:05:57;19.60;99.90
4651;DHT22;2338;49.602;8.722;2023-07-16T07:08:42;19.80;99.90
4651;DHT22;2338;49.602;8.722;2023-07-16T07:11:28;20.00;99.90
4651;DHT22;2338;49.602;8.722;2023-07-16T07:14:13;20.00;99.90
4651;DHT22;2338;49.602;8.722;2023-07-16T07:16:59;19.70;99.90
4651;DHT22;2338;49.602;8.722;2023-07-16T07:19:46;19.70;99.90
4651;DHT22;2338;49.602;8.722;2023-07-16T07:22:31;19.60;99.90
4651;DHT22;2338;49.602;8.722;2023-07-16T07:25:17;19.60;99.90
4651;DHT22;2338;49.602;8.722;2023-07-16T07:28:03;19.70;99.90
4651;DHT22;2338;49.602;8.722;2023-07-16T07:30:48;19.50;99.90
4651;DHT22;2338;49.602;8.722;2023-07-16T07:33:34;19.60;99.90
4651;DHT22;2338;49.602;8.722;2023-07-16T07:36:21;19.50;99.90
4651;DHT22;2338;49.602;8.722;2023-07-16T07:39:07;19.50;99.90
4651;DHT22;2338;49.602;8.722;2023-07-16T07:41:52;19.60;99.90
4651;DHT22;2338;49.602;8.722;2023-07-16T07:44:37;19.70;99.90
4651;DHT22;2338;49.602;8.722;2023-07-16T07:47:23;19.80;99.90
4651;DHT22;2338;49.602;8.722;2023-07-16T07:50:09;19.90;99.90
4651;DHT22;2338;49.602;8.722;2023-07-16T07:52:56;20.00;99.90
4651;DHT22;2338;49.602;8.722;2023-07-16T07:55:41;20.20;99.90
4651;DHT22;2338;49.602;8.722;2023-07-16T07:58:27;20.10;99.90
4651;DHT22;2338;49.602;8.722;2023-07-16T08:01:13;20.30;99.90
4651;DHT22;2338;49.602;8.722;2023-07-16T08:03:58;20.30;99.90
4651;DHT22;2338;49.602;8.722;2023-07-16T08:06:44;20.40;99.90
4651;DHT22;2338;49.602;8.722;2023-07-16T08:09:31;20.50;99.90
4651;DHT22;2338;49.602;8.722;2023-07-16T08:12:16;20.50;99.90
4651;DHT22;2338;49.602;8.722;2023-07-16T08:15:02;20.30;99.90
4651;DHT22;2338;49.602;8.722;2023-07-16T08:17:48;20.20;99.90
4651;DHT22;2338;49.602;8.722;2023-07-16T08:20:33;20.30;99.90
4651;DHT22;2338;49.602;8.722;2023-07-16T08:23:20;20.40;99.90
4651;DHT22;2338;49.602;8.722;2023-07-16T08:26:07;20.50;99.90
4651;DHT22;2338;49.602;8.722;2023-07-16T08:28:53;20.70;99.90
4651;DHT22;2338;49.602;8.722;2023-07-16T08:31:38;20.80;99.90
4651;DHT22;2338;49.602;8.722;2023-07-16T08:34:24;20.80;99.90
4651;DHT22;2338;49.602;8.722;2023-07-16T08:37:10;20.70;99.90
4651;DHT22;2338;49.602;8.722;2023-07-16T08:39:55;20.60;99.90
4651;DHT22;2338;49.602;8.722;2023-07-16T08:42:44;20.60;99.90
4651;DHT22;2338;49.602;8.722;2023-07-16T08:45:30;20.70;99.90
4651;DHT22;2338;49.602;8.722;2023-07-16T08:48:17;20.80;99.90
4651;DHT22;2338;49.602;8.722;2023-07-16T08:51:02;20.90;99.90
4651;DHT22;2338;49.602;8.722;2023-07-16T08:53:48;21.10;99.90
4651;DHT22;2338;49.602;8.722;2023-07-16T08:56:34;21.40;99.90
4651;DHT22;2338;49.602;8.722;2023-07-16T08:59:21;21.50;99.90
4651;DHT22;2338;49.602;8.722;2023-07-16T09:02:07;21.20;99.90
4651;DHT22;2338;49.602;8.722;2023-07-16T09:04:52;21.20;99.90
4651;DHT22;2338;49.602;8.722;2023-07-16T09:07:38;21.20;99.90
4651;DHT22;2338;49.602;8.722;2023-07-16T09:10:24;21.30;99.90
4651;DHT22;2338;49.602;8.722;2023-07-16T09:13:10;21.30;99.90
4651;DHT22;2338;49.602;8.722;2023-07-16T09:15:58;21.20;99.90
4651;DHT22;2338;49.602;8.722;2023-07-16T09:18:44;21.30;99.90
4651;DHT22;2338;49.602;8.722;2023-07-16T09:21:31;21.30;99.90
4651;DHT22;2338;49.602;8.722;2023-07-16T09:24:18;21.30;99.90
4651;DHT22;2338;49.602;8.722;2023-07-16T09:27:05;21.40;99.90
4651;DHT22;2338;49.602;8.722;2023-07-16T09:29:50;21.40;99.90
4651;DHT22;2338;49.602;8.722;2023-07-16T09:32:38;21.50;99.90
4651;DHT22;2338;49.602;8.722;2023-07-16T09:35:25;21.50;99.90
4651;DHT22;2338;49.602;8.722;2023-07-16T09:38:11;21.50;99.90
4651;DHT22;2338;49.602;8.722;2023-07-16T09:40:56;21.60;99.90
4651;DHT22;2338;49.602;8.722;2023-07-16T09:43:43;21.70;99.90
4651;DHT22;2338;49.602;8.722;2023-07-16T09:46:28;21.60;99.90
4651;DHT22;2338;49.602;8.722;2023-07-16T09:49:15;21.70;99.90
4651;DHT22;2338;49.602;8.722;2023-07-16T09:52:02;21.80;99.90
4651;DHT22;2338;49.602;8.722;2023-07-16T09:54:49;21.90;99.90
4651;DHT22;2338;49.602;8.722;2023-07-16T09:57:39;22.00;99.90
4651;DHT22;2338;49.602;8.722;2023-07-16T10:00:27;22.10;99.90
4651;DHT22;2338;49.602;8.722;2023-07-16T10:03:14;22.10;99.90
4651;DHT22;2338;49.602;8.722;2023-07-16T10:06:07;22.10;99.90
4651;DHT22;2338;49.602;8.722;2023-07-16T10:08:53;22.20;99.90
4651;DHT22;2338;49.602;8.722;2023-07-16T10:11:38;22.20;99.90
4651;DHT22;2338;49.602;8.722;2023-07-16T10:14:25;22.40;99.90
4651;DHT22;2338;49.602;8.722;2023-07-16T10:17:15;22.60;99.90
4651;DHT22;2338;49.602;8.722;2023-07-16T10:20:03;22.70;82.40
4651;DHT22;2338;49.602;8.722;2023-07-16T10:22:53;22.60;81.40
4651;DHT22;2338;49.602;8.722;2023-07-16T10:25:39;22.60;89.60
4651;DHT22;2338;49.602;8.722;2023-07-16T10:28:24;22.70;79.90
4651;DHT22;2338;49.602;8.722;2023-07-16T10:31:17;22.80;76.30
4651;DHT22;2338;49.602;8.722;2023-07-16T10:34:04;22.80;83.70
4651;DHT22;2338;49.602;8.722;2023-07-16T10:36:50;22.90;77.60
4651;DHT22;2338;49.602;8.722;2023-07-16T10:39:46;22.90;68.50
4651;DHT22;2338;49.602;8.722;2023-07-16T10:42:32;23.00;67.40
4651;DHT22;2338;49.602;8.722;2023-07-16T10:45:17;23.20;69.80
4651;DHT22;2338;49.602;8.722;2023-07-16T10:48:03;23.10;61.50
4651;DHT22;2338;49.602;8.722;2023-07-16T10:50:53;23.20;64.60
4651;DHT22;2338;49.602;8.722;2023-07-16T10:53:41;23.00;61.90
4651;DHT22;2338;49.602;8.722;2023-07-16T10:56:27;23.00;68.70
4651;DHT22;2338;49.602;8.722;2023-07-16T10:59:13;23.10;64.30
4651;DHT22;2338;49.602;8.722;2023-07-16T11:01:58;23.30;65.40
4651;DHT22;2338;49.602;8.722;2023-07-16T11:04:47;23.40;61.50
4651;DHT22;2338;49.602;8.722;2023-07-16T11:07:33;23.70;63.00
4651;DHT22;2338;49.602;8.722;2023-07-16T11:10:18;23.80;58.70
4651;DHT22;2338;49.602;8.722;2023-07-16T11:13:05;23.80;64.80
4651;DHT22;2338;49.602;8.722;2023-07-16T11:15:50;23.80;50.30
4651;DHT22;2338;49.602;8.722;2023-07-16T11:18:36;23.70;55.90
4651;DHT22;2338;49.602;8.722;2023-07-16T11:21:21;23.90;62.60
4651;DHT22;2338;49.602;8.722;2023-07-16T11:24:08;23.90;53.50
4651;DHT22;2338;49.602;8.722;2023-07-16T11:26:55;23.90;59.10
4651;DHT22;2338;49.602;8.722;2023-07-16T11:29:46;23.90;55.70
4651;DHT22;2338;49.602;8.722;2023-07-16T11:32:33;24.00;52.50
4651;DHT22;2338;49.602;8.722;2023-07-16T11:35:20;24.00;50.00
4651;DHT22;2338;49.602;8.722;2023-07-16T11:38:06;24.10;51.50
4651;DHT22;2338;49.602;8.722;2023-07-16T11:40:51;24.30;59.40
4651;DHT22;2338;49.602;8.722;2023-07-16T11:43:37;24.50;48.20
4651;DHT22;2338;49.602;8.722;2023-07-16T11:46:31;24.50;45.10
4651;DHT22;2338;49.602;8.722;2023-07-16T11:49:16;24.70;42.40
4651;DHT22;2338;49.602;8.722;2023-07-16T11:52:03;24.50;37.00
4651;DHT22;2338;49.602;8.722;2023-07-16T11:54:49;24.40;44.90
4651;DHT22;2338;49.602;8.722;2023-07-16T11:57:34;24.40;40.50
4651;DHT22;2338;49.602;8.722;2023-07-16T12:00:20;24.20;42.50
4651;DHT22;2338;49.602;8.722;2023-07-16T12:03:06;24.20;46.00
4651;DHT22;2338;49.602;8.722;2023-07-16T12:05:52;24.30;36.30
4651;DHT22;2338;49.602;8.722;2023-07-16T12:08:37;24.10;39.40
4651;DHT22;2338;49.602;8.722;2023-07-16T12:11:23;23.90;39.30
4651;DHT22;2338;49.602;8.722;2023-07-16T12:14:08;24.00;42.60
4651;DHT22;2338;49.602;8.722;2023-07-16T12:16:54;24.20;36.90
4651;DHT22;2338;49.602;8.722;2023-07-16T12:19:42;24.40;34.30
4651;DHT22;2338;49.602;8.722;2023-07-16T12:22:27;24.50;34.20
4651;DHT22;2338;49.602;8.722;2023-07-16T12:25:13;24.70;38.50
4651;DHT22;2338;49.602;8.722;2023-07-16T12:28:00;24.70;33.30
4651;DHT22;2338;49.602;8.722;2023-07-16T12:30:46;24.90;33.10
4651;DHT22;2338;49.602;8.722;2023-07-16T12:33:31;24.80;30.00
4651;DHT22;2338;49.602;8.722;2023-07-16T12:36:18;24.50;29.50
4651;DHT22;2338;49.602;8.722;2023-07-16T12:39:04;24.70;28.30
4651;DHT22;2338;49.602;8.722;2023-07-16T12:41:49;25.00;33.30
4651;DHT22;2338;49.602;8.722;2023-07-16T12:44:35;25.20;26.90
4651;DHT22;2338;49.602;8.722;2023-07-16T12:47:20;25.40;25.30
4651;DHT22;2338;49.602;8.722;2023-07-16T12:50:06;25.60;22.70
4651;DHT22;2338;49.602;8.722;2023-07-16T12:52:53;25.80;19.60
4651;DHT22;2338;49.602;8.722;2023-07-16T12:55:39;25.80;23.90
4651;DHT22;2338;49.602;8.722;2023-07-16T12:58:24;25.70;22.30
4651;DHT22;2338;49.602;8.722;2023-07-16T13:01:10;25.90;22.30
4651;DHT22;2338;49.602;8.722;2023-07-16T13:03:56;25.90;21.30
4651;DHT22;2338;49.602;8.722;2023-07-16T13:06:41;25.90;21.20
4651;DHT22;2338;49.602;8.722;2023-07-16T13:09:31;26.00;18.50
4651;DHT22;2338;49.602;8.722;2023-07-16T13:12:16;26.00;19.10
4651;DHT22;2338;49.602;8.722;2023-07-16T13:15:02;26.00;16.00
4651;DHT22;2338;49.602;8.722;2023-07-16T13:17:47;25.90;17.90
4651;DHT22;2338;49.602;8.722;2023-07-16T13:20:33;26.10;19.70
4651;DHT22;2338;49.602;8.722;2023-07-16T13:23:18;26.50;20.50
4651;DHT22;2338;49.602;8.722;2023-07-16T13:26:05;26.50;19.00
4651;DHT22;2338;49.602;8.722;2023-07-16T13:28:51;26.60;17.30
4651;DHT22;2338;49.602;8.722;2023-07-16T13:31:36;26.60;16.00
4651;DHT22;2338;49.602;8.722;2023-07-16T13:34:22;26.70;15.90
4651;DHT22;2338;49.602;8.722;2023-07-16T13:37:07;26.80;17.90
4651;DHT22;2338;49.602;8.722;2023-07-16T13:39:53;26.90;18.10
4651;DHT22;2338;49.602;8.722;2023-07-16T13:42:40;26.90;17.20
4651;DHT22;2338;49.602;8.722;2023-07-16T13:45:26;26.90;15.30
4651;DHT22;2338;49.602;8.722;2023-07-16T13:48:12;26.90;12.90
4651;DHT22;2338;49.602;8.722;2023-07-16T13:50:57;26.90;13.90
4651;DHT22;2338;49.602;8.722;2023-07-16T13:53:43;27.10;14.40
4651;DHT22;2338;49.602;8.722;2023-07-16T13:56:28;26.90;15.80
4651;DHT22;2338;49.602;8.722;2023-07-16T13:59:15;27.10;13.40
4651;DHT22;2338;49.602;8.722;2023-07-16T14:02:01;27.10;15.10
4651;DHT22;2338;49.602;8.722;2023-07-16T14:04:47;27.10;14.30
4651;DHT22;2338;49.602;8.722;2023-07-16T14:07:32;27.10;16.00
4651;DHT22;2338;49.602;8.722;2023-07-16T14:10:18;27.10;15.60
4651;DHT22;2338;49.602;8.722;2023-07-16T14:13:04;27.30;15.00
4651;DHT22;2338;49.602;8.722;2023-07-16T14:15:51;27.50;14.70
4651;DHT22;2338;49.602;8.722;2023-07-16T14:18:36;27.70;12.30
4651;DHT22;2338;49.602;8.722;2023-07-16T14:21:22;27.60;13.20
4651;DHT22;2338;49.602;8.722;2023-07-16T14:24:10;27.50;12.50
4651;DHT22;2338;49.602;8.722;2023-07-16T14:26:58;27.50;11.50
4651;DHT22;2338;49.602;8.722;2023-07-16T14:29:44;27.50;11.40
4651;DHT22;2338;49.602;8.722;2023-07-16T14:32:31;27.30;12.80
4651;DHT22;2338;49.602;8.722;2023-07-16T14:35:16;27.40;12.70
4651;DHT22;2338;49.602;8.722;2023-07-16T14:38:02;27.30;15.00
4651;DHT22;2338;49.602;8.722;2023-07-16T14:40:48;27.40;14.10
4651;DHT22;2338;49.602;8.722;2023-07-16T14:43:35;27.50;13.30
4651;DHT22;2338;49.602;8.722;2023-07-16T14:46:20;27.50;13.30
4651;DHT22;2338;49.602;8.722;2023-07-16T14:49:07;27.60;14.60
4651;DHT22;2338;49.602;8.722;2023-07-16T14:51:53;27.60;13.20
4651;DHT22;2338;49.602;8.722;2023-07-16T14:54:38;27.50;14.10
4651;DHT22;2338;49.602;8.722;2023-07-16T14:57:25;27.30;13.90
4651;DHT22;2338;49.602;8.722;2023-07-16T15:00:12;27.50;14.40
4651;DHT22;2338;49.602;8.722;2023-07-16T15:02:58;27.30;14.00
4651;DHT22;2338;49.602;8.722;2023-07-16T15:05:45;27.30;12.60
4651;DHT22;2338;49.602;8.722;2023-07-16T15:08:30;27.50;13.40
4651;DHT22;2338;49.602;8.722;2023-07-16T15:11:16;27.30;12.60
4651;DHT22;2338;49.602;8.722;2023-07-16T15:14:01;27.20;14.00
4651;DHT22;2338;49.602;8.722;2023-07-16T15:16:47;27.30;15.00
4651;DHT22;2338;49.602;8.722;2023-07-16T15:19:33;27.40;14.60
4651;DHT22;2338;49.602;8.722;2023-07-16T15:22:21;27.30;13.00
4651;DHT22;2338;49.602;8.722;2023-07-16T15:25:07;27.30;13.50
4651;DHT22;2338;49.602;8.722;2023-07-16T15:27:53;27.40;13.00
4651;DHT22;2338;49.602;8.722;2023-07-16T15:30:38;27.40;11.80
4651;DHT22;2338;49.602;8.722;2023-07-16T15:33:24;26.90;11.80
4651;DHT22;2338;49.602;8.722;2023-07-16T15:36:09;26.50;12.80
4651;DHT22;2338;49.602;8.722;2023-07-16T15:38:56;26.20;13.70
4651;DHT22;2338;49.602;8.722;2023-07-16T15:41:42;26.40;15.20
4651;DHT22;2338;49.602;8.722;2023-07-16T15:44:27;26.60;17.20
4651;DHT22;2338;49.602;8.722;2023-07-16T15:47:13;26.80;15.30
4651;DHT22;2338;49.602;8.722;2023-07-16T15:49:58;26.80;13.00
4651;DHT22;2338;49.602;8.722;2023-07-16T15:52:44;26.60;13.10
4651;DHT22;2338;49.602;8.722;2023-07-16T15:55:31;26.40;13.60
4651;DHT22;2338;49.602;8.722;2023-07-16T15:58:16;26.30;13.80
4651;DHT22;2338;49.602;8.722;2023-07-16T16:01:03;26.40;15.00
4651;DHT22;2338;49.602;8.722;2023-07-16T16:03:49;26.30;15.40
4651;DHT22;2338;49.602;8.722;2023-07-16T16:06:34;26.20;14.70
4651;DHT22;2338;49.602;8.722;2023-07-16T16:09:20;26.10;15.00
4651;DHT22;2338;49.602;8.722;2023-07-16T16:12:08;26.10;16.80
4651;DHT22;2338;49.602;8.722;2023-07-16T16:14:53;26.20;17.30
4651;DHT22;2338;49.602;8.722;2023-07-16T16:17:38;26.20;16.40
4651;DHT22;2338;49.602;8.722;2023-07-16T16:20:24;26.30;16.00
4651;DHT22;2338;49.602;8.722;2023-07-16T16:23:10;26.50;17.40
4651;DHT22;2338;49.602;8.722;2023-07-16T16:25:55;26.70;16.60
4651;DHT22;2338;49.602;8.722;2023-07-16T16:28:42;26.80;15.90
4651;DHT22;2338;49.602;8.722;2023-07-16T16:31:28;26.80;15.40
4651;DHT22;2338;49.602;8.722;2023-07-16T16:34:13;26.60;14.80
4651;DHT22;2338;49.602;8.722;2023-07-16T16:36:59;26.40;16.10
4651;DHT22;2338;49.602;8.722;2023-07-16T16:39:44;26.20;15.70
4651;DHT22;2338;49.602;8.722;2023-07-16T16:42:30;26.20;15.70
4651;DHT22;2338;49.602;8.722;2023-07-16T16:45:17;26.20;16.30
4651;DHT22;2338;49.602;8.722;2023-07-16T16:48:02;26.20;17.20
4651;DHT22;2338;49.602;8.722;2023-07-16T16:50:48;26.00;16.30
4651;DHT22;2338;49.602;8.722;2023-07-16T16:53:33;25.80;17.20
4651;DHT22;2338;49.602;8.722;2023-07-16T16:56:19;25.70;17.40
4651;DHT22;2338;49.602;8.722;2023-07-16T16:59:04;25.50;17.20
4651;DHT22;2338;49.602;8.722;2023-07-16T17:01:51;25.50;19.30
4651;DHT22;2338;49.602;8.722;2023-07-16T17:04:37;25.40;19.30
4651;DHT22;2338;49.602;8.722;2023-07-16T17:07:23;25.30;18.40
4651;DHT22;2338;49.602;8.722;2023-07-16T17:10:09;25.10;19.00
4651;DHT22;2338;49.602;8.722;2023-07-16T17:12:54;25.00;19.10
4651;DHT22;2338;49.602;8.722;2023-07-16T17:15:43;25.00;20.90
4651;DHT22;2338;49.602;8.722;2023-07-16T17:18:30;24.80;20.00
4651;DHT22;2338;49.602;8.722;2023-07-16T17:21:15;24.80;22.60
4651;DHT22;2338;49.602;8.722;2023-07-16T17:24:01;24.80;24.70
4651;DHT22;2338;49.602;8.722;2023-07-16T17:26:46;24.80;21.50
4651;DHT22;2338;49.602;8.722;2023-07-16T17:29:32;24.90;23.70
4651;DHT22;2338;49.602;8.722;2023-07-16T17:32:17;24.90;24.90
4651;DHT22;2338;49.602;8.722;2023-07-16T17:35:05;24.90;24.20
4651;DHT22;2338;49.602;8.722;2023-07-16T17:37:50;24.80;23.70
4651;DHT22;2338;49.602;8.722;2023-07-16T17:40:36;24.70;26.00
4651;DHT22;2338;49.602;8.722;2023-07-16T17:43:22;24.70;25.20
4651;DHT22;2338;49.602;8.722;2023-07-16T17:46:07;24.70;28.30
4651;DHT22;2338;49.602;8.722;2023-07-16T17:48:53;24.70;29.50
4651;DHT22;2338;49.602;8.722;2023-07-16T17:51:39;24.60;38.60
4651;DHT22;2338;49.602;8.722;2023-07-16T17:54:25;24.50;34.90
4651;DHT22;2338;49.602;8.722;2023-07-16T17:57:10;24.50;45.90
4651;DHT22;2338;49.602;8.722;2023-07-16T17:59:56;24.40;48.80
4651;DHT22;2338;49.602;8.722;2023-07-16T18:02:41;24.30;47.40
4651;DHT22;2338;49.602;8.722;2023-07-16T18:05:27;24.30;26.50